sensor_id;sensor_type;location;lat;lon;timestamp;temperature;humidity
23618;DHT22;18207;32.078;34.818;2023-04-26T00:01:51;24.70;42.40
23618;DHT22;18207;32.078;34.818;2023-04-26T00:04:23;24.70;42.40
23618;DHT22;18207;32.078;34.818;2023-04-26T00:06:56;24.60;42.90
23618;DHT22;18207;32.078;34.818;2023-04-26T00:09:27;24.60;42.40
23618;DHT22;18207;32.078;34.818;2023-04-26T00:11:57;24.50;42.30
23618;DHT22;18207;32.078;34.818;2023-04-26T00:14:27;24.50;42.40
23618;DHT22;18207;32.078;34.818;2023-04-26T00:16:57;24.50;42.40
23618;DHT22;18207;32.078;34.818;2023-04-26T00:19:30;24.40;42.30
23618;DHT22;18207;32.078;34.818;2023-04-26T00:22:01;24.40;42.40
23618;DHT22;18207;32.078;34.818;2023-04-26T00:24:32;24.30;42.30
23618;DHT22;18207;32.078;34.818;2023-04-26T00:27:02;24.30;42.40
23618;DHT22;18207;32.078;34.818;2023-04-26T00:29:35;24.30;42.40
23618;DHT22;18207;32.078;34.818;2023-04-26T00:32:06;24.30;42.40
23618;DHT22;18207;32.078;34.818;2023-04-26T00:34:38;24.20;42.40
23618;DHT22;18207;32.078;34.818;2023-04-26T00:37:08;24.20;42.40
23618;DHT22;18207;32.078;34.818;2023-04-26T00:39:39;24.20;42.50
23618;DHT22;18207;32.078;34.818;2023-04-26T00:42:09;24.10;42.40
23618;DHT22;18207;32.078;34.818;2023-04-26T00:44:39;24.10;42.40
23618;DHT22;18207;32.078;34.818;2023-04-26T00:47:09;24.10;42.40
23618;DHT22;18207;32.078;34.818;2023-04-26T00:49:41;24.10;42.50
23618;DHT22;18207;32.078;34.818;2023-04-26T00:52:12;24.10;42.50
23618;DHT22;18207;32.078;34.818;2023-04-26T00:54:43;24.10;42.50
23618;DHT22;18207;32.078;34.818;2023-04-26T00:57:13;24.00;42.50
23618;DHT22;18207;32.078;34.818;2023-04-26T00:59:43;24.00;42.50
23618;DHT22;18207;32.078;34.818;2023-04-26T01:02:13;24.00;42.60
23618;DHT22;18207;32.078;34.818;2023-04-26T01:04:45;24.00;42.60
23618;DHT22;18207;32.078;34.818;2023-04-26T01:07:16;24.00;42.60
23618;DHT22;18207;32.078;34.818;2023-04-26T01:09:47;24.00;42.60
23618;DHT22;18207;32.078;34.818;2023-04-26T01:12:18;24.00;42.60
23618;DHT22;18207;32.078;34.818;2023-04-26T01:14:49;24.00;42.60
23618;DHT22;18207;32.078;34.818;2023-04-26T01:17:20;24.00;42.60
23618;DHT22;18207;32.078;34.818;2023-04-26T01:19:51;23.90;42.60
23618;DHT22;18207;32.078;34.818;2023-04-26T01:22:21;23.90;42.60
23618;DHT22;18207;32.078;34.818;2023-04-26T01:24:54;24.00;42.60
23618;DHT22;18207;32.078;34.818;2023-04-26T01:27:25;23.90;42.60
23618;DHT22;18207;32.078;34.818;2023-04-26T01:29:55;23.90;42.60
23618;DHT22;18207;32.078;34.818;2023-04-26T01:32:25;23.90;42.50
23618;DHT22;18207;32.078;34.818;2023-04-26T01:34:55;23.90;42.50
23618;DHT22;18207;32.078;34.818;2023-04-26T01:37:24;23.90;42.40
23618;DHT22;18207;32.078;34.818;2023-04-26T01:39:56;23.90;42.30
23618;DHT22;18207;32.078;34.818;2023-04-26T01:42:26;23.90;42.20
23618;DHT22;18207;32.078;34.818;2023-04-26T01:44:57;23.80;42.20
23618;DHT22;18207;32.078;34.818;2023-04-26T01:47:26;23.80;42.20
23618;DHT22;18207;32.078;34.818;2023-04-26T01:49:56;23.80;42.30
23618;DHT22;18207;32.078;34.818;2023-04-26T01:52:26;23.80;42.40
23618;DHT22;18207;32.078;34.818;2023-04-26T01:54:59;23.80;42.30
23618;DHT22;18207;32.078;34.818;2023-04-26T01:57:28;23.80;42.30
23618;DHT22;18207;32.078;34.818;2023-04-26T01:59:58;23.70;42.30
23618;DHT22;18207;32.078;34.818;2023-04-26T02:02:29;23.80;42.30
23618;DHT22;18207;32.078;34.818;2023-04-26T02:04:59;23.70;42.30
23618;DHT22;18207;32.078;34.818;2023-04-26T02:07:29;23.80;42.40
23618;DHT22;18207;32.078;34.818;2023-04-26T02:10:02;23.70;42.30
23618;DHT22;18207;32.078;34.818;2023-04-26T02:12:32;23.70;42.40
23618;DHT22;18207;32.078;34.818;2023-04-26T02:15:02;23.70;42.30
23618;DHT22;18207;32.078;34.818;2023-04-26T02:17:33;23.70;42.30
23618;DHT22;18207;32.078;34.818;2023-04-26T02:20:04;23.70;42.30
23618;DHT22;18207;32.078;34.818;2023-04-26T02:22:36;23.70;42.30
23618;DHT22;18207;32.078;34.818;2023-04-26T02:25:09;23.70;42.30
23618;DHT22;18207;32.078;34.818;2023-04-26T02:27:39;23.70;42.30
23618;DHT22;18207;32.078;34.818;2023-04-26T02:30:10;23.70;42.30
23618;DHT22;18207;32.078;34.818;2023-04-26T02:32:41;23.70;42.30
23618;DHT22;18207;32.078;34.818;2023-04-26T02:35:11;23.70;42.40
23618;DHT22;18207;32.078;34.818;2023-04-26T02:37:41;23.70;42.40
23618;DHT22;18207;32.078;34.818;2023-04-26T02:40:17;23.70;42.40
23618;DHT22;18207;32.078;34.818;2023-04-26T02:42:48;23.60;42.40
23618;DHT22;18207;32.078;34.818;2023-04-26T02:45:18;23.60;42.40
23618;DHT22;18207;32.078;34.818;2023-04-26T02:47:48;23.60;42.40
23618;DHT22;18207;32.078;34.818;2023-04-26T02:50:18;23.60;42.40
23618;DHT22;18207;32.078;34.818;2023-04-26T02:52:48;23.60;42.40
23618;DHT22;18207;32.078;34.818;2023-04-26T02:55:20;23.60;42.40
23618;DHT22;18207;32.078;34.818;2023-04-26T02:57:50;23.60;42.40
23618;DHT22;18207;32.078;34.818;2023-04-26T03:00:21;23.60;42.40
23618;DHT22;18207;32.078;34.818;2023-04-26T03:02:51;23.60;42.40
23618;DHT22;18207;32.078;34.818;2023-04-26T03:05:22;23.60;42.40
23618;DHT22;18207;32.078;34.818;2023-04-26T03:07:52;23.50;42.40
23618;DHT22;18207;32.078;34.818;2023-04-26T03:10:24;23.60;42.40
23618;DHT22;18207;32.078;34.818;2023-04-26T03:12:54;23.60;42.40
23618;DHT22;18207;32.078;34.818;2023-04-26T03:15:24;23.50;42.30
23618;DHT22;18207;32.078;34.818;2023-04-26T03:17:53;23.50;42.30
23618;DHT22;18207;32.078;34.818;2023-04-26T03:20:24;23.50;42.40
23618;DHT22;18207;32.078;34.818;2023-04-26T03:22:54;23.50;42.40
23618;DHT22;18207;32.078;34.818;2023-04-26T03:25:26;23.50;42.40
23618;DHT22;18207;32.078;34.818;2023-04-26T03:27:56;23.50;42.40
23618;DHT22;18207;32.078;34.818;2023-04-26T03:30:26;23.50;42.40
23618;DHT22;18207;32.078;34.818;2023-04-26T03:32:56;23.50;42.30
23618;DHT22;18207;32.078;34.818;2023-04-26T03:35:26;23.50;42.30
23618;DHT22;18207;32.078;34.818;2023-04-26T03:37:56;23.50;42.30
23618;DHT22;18207;32.078;34.818;2023-04-26T03:40:28;23.50;42.40
23618;DHT22;18207;32.078;34.818;2023-04-26T03:42:57;23.50;42.30
23618;DHT22;18207;32.078;34.818;2023-04-26T03:45:28;23.50;42.30
23618;DHT22;18207;32.078;34.818;2023-04-26T03:47:58;23.40;42.20
23618;DHT22;18207;32.078;34.818;2023-04-26T03:50:28;23.40;42.20
23618;DHT22;18207;32.078;34.818;2023-04-26T03:52:58;23.40;42.30
23618;DHT22;18207;32.078;34.818;2023-04-26T03:55:30;23.40;42.30
23618;DHT22;18207;32.078;34.818;2023-04-26T03:58:00;23.40;42.30
23618;DHT22;18207;32.078;34.818;2023-04-26T04:00:35;23.30;42.30
23618;DHT22;18207;32.078;34.818;2023-04-26T04:03:06;23.30;42.30
23618;DHT22;18207;32.078;34.818;2023-04-26T04:05:36;23.30;42.40
23618;DHT22;18207;32.078;34.818;2023-04-26T04:08:10;23.30;42.40
23618;DHT22;18207;32.078;34.818;2023-04-26T04:10:43;23.30;42.40
23618;DHT22;18207;32.078;34.818;2023-04-26T04:13:13;23.30;42.40
23618;DHT22;18207;32.078;34.818;2023-04-26T04:15:44;23.40;42.60
23618;DHT22;18207;32.078;34.818;2023-04-26T04:18:14;23.40;42.60
23618;DHT22;18207;32.078;34.818;2023-04-26T04:20:45;23.40;42.60
23618;DHT22;18207;32.078;34.818;2023-04-26T04:23:15;23.40;42.60
23618;DHT22;18207;32.078;34.818;2023-04-26T04:25:47;23.40;42.60
23618;DHT22;18207;32.078;34.818;2023-04-26T04:28:18;23.40;42.60
23618;DHT22;18207;32.078;34.818;2023-04-26T04:30:49;23.40;42.60
23618;DHT22;18207;32.078;34.818;2023-04-26T04:33:19;23.40;42.60
23618;DHT22;18207;32.078;34.818;2023-04-26T04:35:49;23.50;42.60
23618;DHT22;18207;32.078;34.818;2023-04-26T04:38:21;23.50;42.70
23618;DHT22;18207;32.078;34.818;2023-04-26T04:40:53;23.50;42.70
23618;DHT22;18207;32.078;34.818;2023-04-26T04:43:23;23.60;42.70
23618;DHT22;18207;32.078;34.818;2023-04-26T04:45:54;23.60;42.80
23618;DHT22;18207;32.078;34.818;2023-04-26T04:48:25;23.60;42.70
23618;DHT22;18207;32.078;34.818;2023-04-26T04:50:55;23.60;42.70
23618;DHT22;18207;32.078;34.818;2023-04-26T04:53:24;23.70;42.80
23618;DHT22;18207;32.078;34.818;2023-04-26T04:55:56;23.70;42.80
23618;DHT22;18207;32.078;34.818;2023-04-26T04:58:27;23.80;42.90
23618;DHT22;18207;32.078;34.818;2023-04-26T05:00:57;23.80;42.80
23618;DHT22;18207;32.078;34.818;2023-04-26T05:03:29;23.80;42.70
23618;DHT22;18207;32.078;34.818;2023-04-26T05:06:00;23.90;42.80
23618;DHT22;18207;32.078;34.818;2023-04-26T05:08:31;23.90;42.70
23618;DHT22;18207;32.078;34.818;2023-04-26T05:11:02;23.90;42.60
23618;DHT22;18207;32.078;34.818;2023-04-26T05:13:32;23.90;42.70
23618;DHT22;18207;32.078;34.818;2023-04-26T05:16:03;23.90;42.80
23618;DHT22;18207;32.078;34.818;2023-04-26T05:18:33;24.00;42.90
23618;DHT22;18207;32.078;34.818;2023-04-26T05:21:04;24.00;42.90
23618;DHT22;18207;32.078;34.818;2023-04-26T05:23:34;24.10;43.00
23618;DHT22;18207;32.078;34.818;2023-04-26T05:26:07;24.10;43.00
23618;DHT22;18207;32.078;34.818;2023-04-26T05:28:42;24.10;43.00
23618;DHT22;18207;32.078;34.818;2023-04-26T05:31:12;24.20;43.10
23618;DHT22;18207;32.078;34.818;2023-04-26T05:33:42;24.20;43.00
23618;DHT22;18207;32.078;34.818;2023-04-26T05:36:12;24.30;43.20
23618;DHT22;18207;32.078;34.818;2023-04-26T05:38:43;24.30;43.10
23618;DHT22;18207;32.078;34.818;2023-04-26T05:41:14;24.40;43.20
23618;DHT22;18207;32.078;34.818;2023-04-26T05:43:47;24.40;43.20
23618;DHT22;18207;32.078;34.818;2023-04-26T05:46:17;24.50;43.20
23618;DHT22;18207;32.078;34.818;2023-04-26T05:48:47;24.50;43.10
23618;DHT22;18207;32.078;34.818;2023-04-26T05:51:17;24.60;43.10
23618;DHT22;18207;32.078;34.818;2023-04-26T05:53:47;24.70;43.10
23618;DHT22;18207;32.078;34.818;2023-04-26T05:56:20;24.80;43.20
23618;DHT22;18207;32.078;34.818;2023-04-26T05:58:50;24.80;43.00
23618;DHT22;18207;32.078;34.818;2023-04-26T06:01:20;24.80;43.00
23618;DHT22;18207;32.078;34.818;2023-04-26T06:03:53;24.90;43.10
23618;DHT22;18207;32.078;34.818;2023-04-26T06:06:27;25.00;43.00
23618;DHT22;18207;32.078;34.818;2023-04-26T06:08:58;25.10;42.80
23618;DHT22;18207;32.078;34.818;2023-04-26T06:11:31;25.10;42.70
23618;DHT22;18207;32.078;34.818;2023-04-26T06:14:03;25.10;42.50
23618;DHT22;18207;32.078;34.818;2023-04-26T06:16:46;25.30;43.10
23618;DHT22;18207;32.078;34.818;2023-04-26T06:19:16;25.30;42.30
23618;DHT22;18207;32.078;34.818;2023-04-26T06:21:46;25.40;42.20
23618;DHT22;18207;32.078;34.818;2023-04-26T06:24:18;25.40;41.90
23618;DHT22;18207;32.078;34.818;2023-04-26T06:26:50;25.50;41.90
23618;DHT22;18207;32.078;34.818;2023-04-26T06:29:20;25.50;41.70
23618;DHT22;18207;32.078;34.818;2023-04-26T06:31:51;25.60;41.60
23618;DHT22;18207;32.078;34.818;2023-04-26T06:34:20;25.70;41.50
23618;DHT22;18207;32.078;34.818;2023-04-26T06:36:50;25.70;41.30
23618;DHT22;18207;32.078;34.818;2023-04-26T06:39:21;25.80;41.30
23618;DHT22;18207;32.078;34.818;2023-04-26T06:41:52;25.80;41.30
23618;DHT22;18207;32.078;34.818;2023-04-26T06:44:23;25.90;41.30
23618;DHT22;18207;32.078;34.818;2023-04-26T06:46:53;26.00;41.30
23618;DHT22;18207;32.078;34.818;2023-04-26T06:49:23;26.10;41.30
23618;DHT22;18207;32.078;34.818;2023-04-26T06:51:54;26.20;41.10
23618;DHT22;18207;32.078;34.818;2023-04-26T06:54:27;26.30;41.10
23618;DHT22;18207;32.078;34.818;2023-04-26T06:57:04;26.30;40.90
23618;DHT22;18207;32.078;34.818;2023-04-26T06:59:34;26.40;40.80
23618;DHT22;18207;32.078;34.818;2023-04-26T07:02:04;26.40;40.70
23618;DHT22;18207;32.078;34.818;2023-04-26T07:04:35;26.50;40.60
23618;DHT22;18207;32.078;34.818;2023-04-26T07:07:05;26.60;40.50
23618;DHT22;18207;32.078;34.818;2023-04-26T07:09:39;26.70;40.50
23618;DHT22;18207;32.078;34.818;2023-04-26T07:12:12;26.70;40.40
23618;DHT22;18207;32.078;34.818;2023-04-26T07:14:43;26.80;40.20
23618;DHT22;18207;32.078;34.818;2023-04-26T07:17:13;26.90;40.20
23618;DHT22;18207;32.078;34.818;2023-04-26T07:19:43;27.00;40.00
23618;DHT22;18207;32.078;34.818;2023-04-26T07:22:13;27.00;39.70
23618;DHT22;18207;32.078;34.818;2023-04-26T07:24:43;27.10;39.50
23618;DHT22;18207;32.078;34.818;2023-04-26T07:27:16;27.10;39.50
23618;DHT22;18207;32.078;34.818;2023-04-26T07:29:45;27.20;39.40
23618;DHT22;18207;32.078;34.818;2023-04-26T07:32:15;27.30;39.50
23618;DHT22;18207;32.078;34.818;2023-04-26T07:34:46;27.30;39.50
23618;DHT22;18207;32.078;34.818;2023-04-26T07:37:18;27.30;39.40
23618;DHT22;18207;32.078;34.818;2023-04-26T07:39:48;27.40;39.30
23618;DHT22;18207;32.078;34.818;2023-04-26T07:42:20;27.50;39.10
23618;DHT22;18207;32.078;34.818;2023-04-26T07:44:50;27.50;38.90
23618;DHT22;18207;32.078;34.818;2023-04-26T07:47:21;27.50;38.90
23618;DHT22;18207;32.078;34.818;2023-04-26T07:49:52;27.60;38.70
23618;DHT22;18207;32.078;34.818;2023-04-26T07:52:22;27.70;38.50
23618;DHT22;18207;32.078;34.818;2023-04-26T07:54:52;27.70;38.50
23618;DHT22;18207;32.078;34.818;2023-04-26T07:57:24;27.80;38.30
23618;DHT22;18207;32.078;34.818;2023-04-26T07:59:54;27.90;38.30
23618;DHT22;18207;32.078;34.818;2023-04-26T08:02:24;27.90;38.20
23618;DHT22;18207;32.078;34.818;2023-04-26T08:05:10;27.90;38.10
23618;DHT22;18207;32.078;34.818;2023-04-26T08:07:42;28.00;38.30
23618;DHT22;18207;32.078;34.818;2023-04-26T08:10:12;28.00;38.30
23618;DHT22;18207;32.078;34.818;2023-04-26T08:12:44;28.10;38.40
23618;DHT22;18207;32.078;34.818;2023-04-26T08:15:14;28.10;38.40
23618;DHT22;18207;32.078;34.818;2023-04-26T08:17:44;28.10;38.40
23618;DHT22;18207;32.078;34.818;2023-04-26T08:20:14;28.20;39.10
23618;DHT22;18207;32.078;34.818;2023-04-26T08:22:46;28.20;38.40
23618;DHT22;18207;32.078;34.818;2023-04-26T08:25:16;28.30;38.40
23618;DHT22;18207;32.078;34.818;2023-04-26T08:27:48;28.30;38.40
23618;DHT22;18207;32.078;34.818;2023-04-26T08:30:19;28.30;38.40
23618;DHT22;18207;32.078;34.818;2023-04-26T08:32:50;28.30;38.30
23618;DHT22;18207;32.078;34.818;2023-04-26T08:35:20;28.40;38.30
23618;DHT22;18207;32.078;34.818;2023-04-26T08:37:50;28.40;38.30
23618;DHT22;18207;32.078;34.818;2023-04-26T08:40:23;28.40;38.10
23618;DHT22;18207;32.078;34.818;2023-04-26T08:42:54;28.50;38.20
23618;DHT22;18207;32.078;34.818;2023-04-26T08:45:24;28.50;38.10
23618;DHT22;18207;32.078;34.818;2023-04-26T08:47:59;28.50;38.10
23618;DHT22;18207;32.078;34.818;2023-04-26T08:50:36;28.60;38.10
23618;DHT22;18207;32.078;34.818;2023-04-26T08:53:07;28.60;38.00
23618;DHT22;18207;32.078;34.818;2023-04-26T08:55:45;28.60;38.00
23618;DHT22;18207;32.078;34.818;2023-04-26T08:58:18;28.60;37.80
23618;DHT22;18207;32.078;34.818;2023-04-26T09:00:49;28.70;37.80
23618;DHT22;18207;32.078;34.818;2023-04-26T09:03:22;28.60;37.70
23618;DHT22;18207;32.078;34.818;2023-04-26T09:05:53;28.70;37.70
23618;DHT22;18207;32.078;34.818;2023-04-26T09:08:24;28.70;37.60
23618;DHT22;18207;32.078;34.818;2023-04-26T09:10:54;28.70;37.50
23618;DHT22;18207;32.078;34.818;2023-04-26T09:13:29;28.70;37.40
23618;DHT22;18207;32.078;34.818;2023-04-26T09:16:00;28.70;37.30
23618;DHT22;18207;32.078;34.818;2023-04-26T09:18:31;28.80;37.30
23618;DHT22;18207;32.078;34.818;2023-04-26T09:21:02;28.80;37.20
23618;DHT22;18207;32.078;34.818;2023-04-26T09:23:34;28.80;37.10
23618;DHT22;18207;32.078;34.818;2023-04-26T09:26:18;28.80;37.10
23618;DHT22;18207;32.078;34.818;2023-04-26T09:29:10;28.80;36.90
23618;DHT22;18207;32.078;34.818;2023-04-26T09:31:43;28.90;36.90
23618;DHT22;18207;32.078;34.818;2023-04-26T09:34:16;28.90;37.00
23618;DHT22;18207;32.078;34.818;2023-04-26T09:36:48;28.90;37.00
23618;DHT22;18207;32.078;34.818;2023-04-26T09:39:32;28.90;36.80
23618;DHT22;18207;32.078;34.818;2023-04-26T09:42:06;28.90;36.50
23618;DHT22;18207;32.078;34.818;2023-04-26T09:44:39;28.90;36.60
23618;DHT22;18207;32.078;34.818;2023-04-26T09:47:10;28.90;36.60
23618;DHT22;18207;32.078;34.818;2023-04-26T09:49:45;28.90;36.60
23618;DHT22;18207;32.078;34.818;2023-04-26T09:52:18;28.90;36.40
23618;DHT22;18207;32.078;34.818;2023-04-26T09:54:49;28.90;36.20
23618;DHT22;18207;32.078;34.818;2023-04-26T09:57:21;28.90;36.00
23618;DHT22;18207;32.078;34.818;2023-04-26T09:59:53;28.90;36.00
23618;DHT22;18207;32.078;34.818;2023-04-26T10:02:25;28.90;35.90
23618;DHT22;18207;32.078;34.818;2023-04-26T10:04:56;28.90;35.90
23618;DHT22;18207;32.078;34.818;2023-04-26T10:07:29;28.90;35.90
23618;DHT22;18207;32.078;34.818;2023-04-26T10:10:00;28.90;35.80
23618;DHT22;18207;32.078;34.818;2023-04-26T10:12:33;28.90;35.80
23618;DHT22;18207;32.078;34.818;2023-04-26T10:15:08;28.90;35.80
23618;DHT22;18207;32.078;34.818;2023-04-26T10:17:39;28.90;35.50
23618;DHT22;18207;32.078;34.818;2023-04-26T10:20:12;28.90;35.60
23618;DHT22;18207;32.078;34.818;2023-04-26T10:22:47;28.90;35.40
23618;DHT22;18207;32.078;34.818;2023-04-26T10:25:20;28.90;35.40
23618;DHT22;18207;32.078;34.818;2023-04-26T10:28:05;28.90;35.40
23618;DHT22;18207;32.078;34.818;2023-04-26T10:30:55;28.90;35.30
23618;DHT22;18207;32.078;34.818;2023-04-26T10:33:26;28.90;34.90
23618;DHT22;18207;32.078;34.818;2023-04-26T10:36:07;28.90;35.00
23618;DHT22;18207;32.078;34.818;2023-04-26T10:38:41;28.90;34.80
23618;DHT22;18207;32.078;34.818;2023-04-26T10:42:19;28.90;34.90
23618;DHT22;18207;32.078;34.818;2023-04-26T10:44:54;28.90;34.70
23618;DHT22;18207;32.078;34.818;2023-04-26T10:47:31;28.90;34.80
23618;DHT22;18207;32.078;34.818;2023-04-26T10:50:05;29.00;34.60
23618;DHT22;18207;32.078;34.818;2023-04-26T10:52:38;28.90;34.60
23618;DHT22;18207;32.078;34.818;2023-04-26T10:55:40;28.90;34.60
23618;DHT22;18207;32.078;34.818;2023-04-26T10:58:26;28.90;34.50
23618;DHT22;18207;32.078;34.818;2023-04-26T11:01:03;28.90;34.40
23618;DHT22;18207;32.078;34.818;2023-04-26T11:03:36;28.90;34.60
23618;DHT22;18207;32.078;34.818;2023-04-26T11:06:09;28.90;34.70
23618;DHT22;18207;32.078;34.818;2023-04-26T11:08:40;28.90;34.80
23618;DHT22;18207;32.078;34.818;2023-04-26T11:11:11;28.90;34.80
23618;DHT22;18207;32.078;34.818;2023-04-26T11:13:42;28.90;34.90
23618;DHT22;18207;32.078;34.818;2023-04-26T11:16:14;28.90;34.90
23618;DHT22;18207;32.078;34.818;2023-04-26T11:18:47;28.90;34.90
23618;DHT22;18207;32.078;34.818;2023-04-26T11:21:20;28.90;35.00
23618;DHT22;18207;32.078;34.818;2023-04-26T11:23:54;28.90;35.00
23618;DHT22;18207;32.078;34.818;2023-04-26T11:26:31;28.90;35.00
23618;DHT22;18207;32.078;34.818;2023-04-26T11:29:03;28.90;34.70
23618;DHT22;18207;32.078;34.818;2023-04-26T11:31:36;28.90;34.70
23618;DHT22;18207;32.078;34.818;2023-04-26T11:34:08;28.90;34.70
23618;DHT22;18207;32.078;34.818;2023-04-26T11:36:38;28.90;34.80
23618;DHT22;18207;32.078;34.818;2023-04-26T11:39:08;28.90;34.70
23618;DHT22;18207;32.078;34.818;2023-04-26T11:41:40;28.90;34.60
23618;DHT22;18207;32.078;34.818;2023-04-26T11:44:10;28.90;34.60
23618;DHT22;18207;32.078;34.818;2023-04-26T11:46:41;28.90;34.60
23618;DHT22;18207;32.078;34.818;2023-04-26T11:49:14;28.90;34.60
23618;DHT22;18207;32.078;34.818;2023-04-26T11:51:47;28.90;34.60
23618;DHT22;18207;32.078;34.818;2023-04-26T11:54:30;28.90;34.60
23618;DHT22;18207;32.078;34.818;2023-04-26T11:57:01;28.90;34.40
23618;DHT22;18207;32.078;34.818;2023-04-26T11:59:44;28.90;34.50
23618;DHT22;18207;32.078;34.818;2023-04-26T12:02:14;28.90;34.40
23618;DHT22;18207;32.078;34.818;2023-04-26T12:04:47;28.90;34.40
23618;DHT22;18207;32.078;34.818;2023-04-26T12:07:33;28.80;34.30
23618;DHT22;18207;32.078;34.818;2023-04-26T12:10:14;28.80;34.30
23618;DHT22;18207;32.078;34.818;2023-04-26T12:12:47;28.80;34.30
23618;DHT22;18207;32.078;34.818;2023-04-26T12:15:21;28.80;34.40
23618;DHT22;18207;32.078;34.818;2023-04-26T12:17:53;28.80;34.50
23618;DHT22;18207;32.078;34.818;2023-04-26T12:20:31;28.80;34.50
23618;DHT22;18207;32.078;34.818;2023-04-26T12:23:04;28.80;34.50
23618;DHT22;18207;32.078;34.818;2023-04-26T12:25:36;28.70;34.50
23618;DHT22;18207;32.078;34.818;2023-04-26T12:28:09;28.70;34.50
23618;DHT22;18207;32.078;34.818;2023-04-26T12:30:40;28.70;34.50
23618;DHT22;18207;32.078;34.818;2023-04-26T12:33:11;28.70;34.60
23618;DHT22;18207;32.078;34.818;2023-04-26T12:35:46;28.70;34.60
23618;DHT22;18207;32.078;34.818;2023-04-26T12:38:16;28.70;34.50
23618;DHT22;18207;32.078;34.818;2023-04-26T12:40:46;28.70;34.60
23618;DHT22;18207;32.078;34.818;2023-04-26T12:43:17;28.70;34.60
23618;DHT22;18207;32.078;34.818;2023-04-26T12:45:50;28.70;34.60
23618;DHT22;18207;32.078;34.818;2023-04-26T12:48:21;28.60;34.40
23618;DHT22;18207;32.078;34.818;2023-04-26T12:50:52;28.60;34.40
23618;DHT22;18207;32.078;34.818;2023-04-26T12:53:22;28.60;34.30
23618;DHT22;18207;32.078;34.818;2023-04-26T12:55:52;28.60;34.20
23618;DHT22;18207;32.078;34.818;2023-04-26T12:58:22;28.60;34.20
23618;DHT22;18207;32.078;34.818;2023-04-26T13:00:52;28.60;34.20
23618;DHT22;18207;32.078;34.818;2023-04-26T13:03:23;28.50;34.10
23618;DHT22;18207;32.078;34.818;2023-04-26T13:05:55;28.50;34.10
23618;DHT22;18207;32.078;34.818;2023-04-26T13:08:25;28.50;34.00
23618;DHT22;18207;32.078;34.818;2023-04-26T13:10:55;28.40;33.90
23618;DHT22;18207;32.078;34.818;2023-04-26T13:13:25;28.40;33.90
23618;DHT22;18207;32.078;34.818;2023-04-26T13:16:10;28.40;33.90
23618;DHT22;18207;32.078;34.818;2023-04-26T13:18:40;28.30;34.00
23618;DHT22;18207;32.078;34.818;2023-04-26T13:21:11;28.30;34.00
23618;DHT22;18207;32.078;34.818;2023-04-26T13:23:41;28.30;34.00
23618;DHT22;18207;32.078;34.818;2023-04-26T13:26:12;28.30;34.00
23618;DHT22;18207;32.078;34.818;2023-04-26T13:28:44;28.30;34.00
23618;DHT22;18207;32.078;34.818;2023-04-26T13:31:14;28.30;34.20
23618;DHT22;18207;32.078;34.818;2023-04-26T13:33:46;28.30;34.20
23618;DHT22;18207;32.078;34.818;2023-04-26T13:36:18;28.20;34.10
23618;DHT22;18207;32.078;34.818;2023-04-26T13:38:48;28.20;34.30
23618;DHT22;18207;32.078;34.818;2023-04-26T13:41:18;28.20;34.40
23618;DHT22;18207;32.078;34.818;2023-04-26T13:43:48;28.20;34.60
23618;DHT22;18207;32.078;34.818;2023-04-26T13:46:18;28.10;34.60
23618;DHT22;18207;32.078;34.818;2023-04-26T13:48:48;28.10;34.70
23618;DHT22;18207;32.078;34.818;2023-04-26T13:51:21;28.10;34.80
23618;DHT22;18207;32.078;34.818;2023-04-26T13:53:53;28.10;35.00
23618;DHT22;18207;32.078;34.818;2023-04-26T13:56:23;28.10;35.00
23618;DHT22;18207;32.078;34.818;2023-04-26T13:58:54;28.10;35.20
23618;DHT22;18207;32.078;34.818;2023-04-26T14:01:24;28.10;35.20
23618;DHT22;18207;32.078;34.818;2023-04-26T14:03:55;28.10;35.30
23618;DHT22;18207;32.078;34.818;2023-04-26T14:06:27;28.00;35.30
23618;DHT22;18207;32.078;34.818;2023-04-26T14:08:59;28.00;35.30
23618;DHT22;18207;32.078;34.818;2023-04-26T14:11:31;28.00;35.40
23618;DHT22;18207;32.078;34.818;2023-04-26T14:14:02;28.00;35.30
23618;DHT22;18207;32.078;34.818;2023-04-26T14:16:32;28.00;35.40
23618;DHT22;18207;32.078;34.818;2023-04-26T14:19:03;28.00;35.50
23618;DHT22;18207;32.078;34.818;2023-04-26T14:21:35;27.90;35.40
23618;DHT22;18207;32.078;34.818;2023-04-26T14:24:05;27.90;35.40
23618;DHT22;18207;32.078;34.818;2023-04-26T14:26:36;27.90;35.50
23618;DHT22;18207;32.078;34.818;2023-04-26T14:29:05;27.90;35.50
23618;DHT22;18207;32.078;34.818;2023-04-26T14:31:35;27.90;35.60
23618;DHT22;18207;32.078;34.818;2023-04-26T14:34:06;27.80;35.60
23618;DHT22;18207;32.078;34.818;2023-04-26T14:36:38;27.80;35.70
23618;DHT22;18207;32.078;34.818;2023-04-26T14:39:08;27.80;35.80
23618;DHT22;18207;32.078;34.818;2023-04-26T14:41:38;27.80;35.80
23618;DHT22;18207;32.078;34.818;2023-04-26T14:44:08;27.80;35.90
23618;DHT22;18207;32.078;34.818;2023-04-26T14:46:39;27.80;35.90
23618;DHT22;18207;32.078;34.818;2023-04-26T14:49:09;27.70;35.90
23618;DHT22;18207;32.078;34.818;2023-04-26T14:51:41;27.70;36.00
23618;DHT22;18207;32.078;34.818;2023-04-26T14:54:11;27.70;36.00
23618;DHT22;18207;32.078;34.818;2023-04-26T14:56:41;27.70;36.10
23618;DHT22;18207;32.078;34.818;2023-04-26T14:59:12;27.70;36.10
23618;DHT22;18207;32.078;34.818;2023-04-26T15:01:41;27.60;36.20
23618;DHT22;18207;32.078;34.818;2023-04-26T15:04:11;27.60;36.20
23618;DHT22;18207;32.078;34.818;2023-04-26T15:06:43;27.60;36.30
23618;DHT22;18207;32.078;34.818;2023-04-26T15:09:14;27.60;36.40
23618;DHT22;18207;32.078;34.818;2023-04-26T15:11:45;27.60;36.40
23618;DHT22;18207;32.078;34.818;2023-04-26T15:14:15;27.50;36.40
23618;DHT22;18207;32.078;34.818;2023-04-26T15:16:45;27.50;36.50
23618;DHT22;18207;32.078;34.818;2023-04-26T15:19:15;27.60;36.60
23618;DHT22;18207;32.078;34.818;2023-04-26T15:21:47;27.50;36.50
23618;DHT22;18207;32.078;34.818;2023-04-26T15:24:17;27.50;36.60
23618;DHT22;18207;32.078;34.818;2023-04-26T15:26:48;27.50;36.60
23618;DHT22;18207;32.078;34.818;2023-04-26T15:29:18;27.50;36.70
23618;DHT22;18207;32.078;34.818;2023-04-26T15:31:48;27.40;36.60
23618;DHT22;18207;32.078;34.818;2023-04-26T15:34:19;27.40;36.70
23618;DHT22;18207;32.078;34.818;2023-04-26T15:36:52;27.40;36.70
23618;DHT22;18207;32.078;34.818;2023-04-26T15:39:23;27.40;36.80
23618;DHT22;18207;32.078;34.818;2023-04-26T15:41:53;27.40;36.80
23618;DHT22;18207;32.078;34.818;2023-04-26T15:44:24;27.40;36.80